sensor_id;sensor_type;location;lat;lon;timestamp;pressure;altitude;pressure_sealevel;temperature;humidity
71573;BME280;59408;51.032;9.410;2023-02-22T00:01:04;99071.06;;;2.35;100.00
71573;BME280;59408;51.032;9.410;2023-02-22T00:03:32;99071.06;;;2.35;100.00
71573;BME280;59408;51.032;9.410;2023-02-22T00:06:00;99073.75;;;2.35;100.00
71573;BME280;59408;51.032;9.410;2023-02-22T00:08:29;99065.69;;;2.35;100.00
71573;BME280;59408;51.032;9.410;2023-02-22T00:10:57;99056.78;;;2.34;100.00
71573;BME280;59408;51.032;9.410;2023-02-22T00:13:24;99062.13;;;2.39;100.00
71573;BME280;59408;51.032;9.410;2023-02-22T00:15:51;99060.47;;;2.44;100.00
71573;BME280;59408;51.032;9.410;2023-02-22T00:18:18;99056.91;;;2.48;100.00
71573;BME280;59408;51.032;9.410;2023-02-22T00:20:46;99055.53;;;2.51;100.00
71573;BME280;59408;51.032;9.410;2023-02-22T00:23:16;99060.88;;;2.56;100.00
71573;BME280;59408;51.032;9.410;2023-02-22T00:25:43;99055.16;;;2.62;100.00
71573;BME280;59408;51.032;9.410;2023-02-22T00:28:10;99065.34;;;2.65;100.00
71573;BME280;59408;51.032;9.410;2023-02-22T00:30:37;99057.50;;;2.69;100.00
71573;BME280;59408;51.032;9.410;2023-02-22T00:33:04;99060.66;;;2.76;100.00
71573;BME280;59408;51.032;9.410;2023-02-22T00:35:31;99056.06;;;2.76;100.00
71573;BME280;59408;51.032;9.410;2023-02-22T00:38:00;99053.09;;;2.78;100.00
71573;BME280;59408;51.032;9.410;2023-02-22T00:40:29;99050.13;;;2.80;100.00
71573;BME280;59408;51.032;9.410;2023-02-22T00:42:57;99052.28;;;2.78;100.00
71573;BME280;59408;51.032;9.410;2023-02-22T00:45:25;99045.81;;;2.79;100.00
71573;BME280;59408;51.032;9.410;2023-02-22T00:47:53;99046.91;;;2.78;100.00
71573;BME280;59408;51.032;9.410;2023-02-22T00:50:21;99050.13;;;2.80;100.00
71573;BME280;59408;51.032;9.410;2023-02-22T00:52:49;99037.75;;;2.79;100.00
71573;BME280;59408;51.032;9.410;2023-02-22T00:55:19;99039.34;;;2.80;100.00
71573;BME280;59408;51.032;9.410;2023-02-22T00:57:47;99041.22;;;2.79;100.00
71573;BME280;59408;51.032;9.410;2023-02-22T01:00:17;99032.88;;;2.81;100.00
71573;BME280;59408;51.032;9.410;2023-02-22T01:02:45;99037.16;;;2.82;100.00
71573;BME280;59408;51.032;9.410;2023-02-22T01:05:13;99035.84;;;2.79;100.00
71573;BME280;59408;51.032;9.410;2023-02-22T01:07:39;99037.75;;;2.79;100.00
71573;BME280;59408;51.032;9.410;2023-02-22T01:10:08;99031.03;;;2.76;100.00
71573;BME280;59408;51.032;9.410;2023-02-22T01:12:37;99035.09;;;2.73;100.00
71573;BME280;59408;51.032;9.410;2023-02-22T01:15:05;99024.31;;;2.73;100.00
71573;BME280;59408;51.032;9.410;2023-02-22T01:17:32;99024.03;;;2.75;100.00
71573;BME280;59408;51.032;9.410;2023-02-22T01:19:59;99024.00;;;2.80;100.00
71573;BME280;59408;51.032;9.410;2023-02-22T01:22:25;99030.66;;;2.83;100.00
71573;BME280;59408;51.032;9.410;2023-02-22T01:24:52;99024.50;;;2.82;100.00
71573;BME280;59408;51.032;9.410;2023-02-22T01:27:19;99019.91;;;2.83;100.00
71573;BME280;59408;51.032;9.410;2023-02-22T01:29:48;99018.81;;;2.84;100.00
71573;BME280;59408;51.032;9.410;2023-02-22T01:32:15;99009.06;;;2.88;100.00
71573;BME280;59408;51.032;9.410;2023-02-22T01:34:42;99014.75;;;2.86;100.00
71573;BME280;59408;51.032;9.410;2023-02-22T01:37:08;99009.13;;;2.83;100.00
71573;BME280;59408;51.032;9.410;2023-02-22T01:39:35;99008.38;;;2.77;100.00
71573;BME280;59408;51.032;9.410;2023-02-22T01:42:02;99005.19;;;2.75;100.00
71573;BME280;59408;51.032;9.410;2023-02-22T01:44:32;99001.69;;;2.74;100.00
71573;BME280;59408;51.032;9.410;2023-02-22T01:47:02;99003.09;;;2.72;100.00
71573;BME280;59408;51.032;9.410;2023-02-22T01:49:32;98999.31;;;2.73;100.00
71573;BME280;59408;51.032;9.410;2023-02-22T01:52:02;98997.09;;;2.75;100.00
71573;BME280;59408;51.032;9.410;2023-02-22T01:54:32;98992.75;;;2.79;100.00
71573;BME280;59408;51.032;9.410;2023-02-22T01:57:04;98997.56;;;2.82;100.00
71573;BME280;59408;51.032;9.410;2023-02-22T01:59:35;98999.03;;;2.93;100.00
71573;BME280;59408;51.032;9.410;2023-02-22T02:02:05;98989.66;;;3.09;100.00
71573;BME280;59408;51.032;9.410;2023-02-22T02:04:32;98985.44;;;3.22;100.00
71573;BME280;59408;51.032;9.410;2023-02-22T02:07:02;98992.34;;;3.09;100.00
71573;BME280;59408;51.032;9.410;2023-02-22T02:09:32;98988.69;;;2.82;100.00
71573;BME280;59408;51.032;9.410;2023-02-22T02:12:02;98984.56;;;2.65;100.00
71573;BME280;59408;51.032;9.410;2023-02-22T02:14:30;98985.19;;;2.57;100.00
71573;BME280;59408;51.032;9.410;2023-02-22T02:16:56;98977.75;;;2.49;100.00
71573;BME280;59408;51.032;9.410;2023-02-22T02:19:34;98978.31;;;2.46;100.00
71573;BME280;59408;51.032;9.410;2023-02-22T02:22:14;98969.53;;;2.41;100.00
71573;BME280;59408;51.032;9.410;2023-02-22T02:25:23;98964.19;;;2.35;100.00
71573;BME280;59408;51.032;9.410;2023-02-22T02:28:21;98963.13;;;2.36;100.00
71573;BME280;59408;51.032;9.410;2023-02-22T02:34:13;98957.94;;;2.40;100.00
71573;BME280;59408;51.032;9.410;2023-02-22T02:36:50;98962.00;;;2.37;100.00
71573;BME280;59408;51.032;9.410;2023-02-22T02:39:26;98962.31;;;2.36;100.00
71573;BME280;59408;51.032;9.410;2023-02-22T02:41:55;98968.25;;;2.33;100.00
71573;BME280;59408;51.032;9.410;2023-02-22T02:44:26;98962.88;;;2.33;100.00
71573;BME280;59408;51.032;9.410;2023-02-22T02:46:59;98963.13;;;2.36;100.00
71573;BME280;59408;51.032;9.410;2023-02-22T02:49:30;98966.03;;;2.40;100.00
71573;BME280;59408;51.032;9.410;2023-02-22T02:52:02;98958.47;;;2.42;100.00
71573;BME280;59408;51.032;9.410;2023-02-22T02:54:29;98963.03;;;2.42;100.00
71573;BME280;59408;51.032;9.410;2023-02-22T02:56:57;98961.44;;;2.41;100.00
71573;BME280;59408;51.032;9.410;2023-02-22T02:59:26;98963.91;;;2.37;100.00
71573;BME280;59408;51.032;9.410;2023-02-22T03:02:05;98967.09;;;2.39;100.00
71573;BME280;59408;51.032;9.410;2023-02-22T03:04:47;98962.53;;;2.39;100.00
71573;BME280;59408;51.032;9.410;2023-02-22T03:07:28;98959.63;;;2.36;100.00
71573;BME280;59408;51.032;9.410;2023-02-22T03:10:06;98950.75;;;2.35;100.00
71573;BME280;59408;51.032;9.410;2023-02-22T03:12:44;98953.94;;;2.37;100.00
71573;BME280;59408;51.032;9.410;2023-02-22T03:17:47;98942.88;;;2.39;100.00
71573;BME280;59408;51.032;9.410;2023-02-22T03:20:21;98952.28;;;2.42;100.00
71573;BME280;59408;51.032;9.410;2023-02-22T03:22:57;98941.22;;;2.43;100.00
71573;BME280;59408;51.032;9.410;2023-02-22T03:25:30;98942.03;;;2.44;100.00
71573;BME280;59408;51.032;9.410;2023-02-22T03:28:01;98945.25;;;2.46;100.00
71573;BME280;59408;51.032;9.410;2023-02-22T03:30:33;98940.94;;;2.45;100.00
71573;BME280;59408;51.032;9.410;2023-02-22T03:33:05;98934.47;;;2.46;100.00
71573;BME280;59408;51.032;9.410;2023-02-22T03:35:38;98928.78;;;2.47;100.00
71573;BME280;59408;51.032;9.410;2023-02-22T03:38:09;98926.31;;;2.51;100.00
71573;BME280;59408;51.032;9.410;2023-02-22T03:40:39;98927.94;;;2.52;100.00
71573;BME280;59408;51.032;9.410;2023-02-22T03:43:09;98933.84;;;2.54;100.00
71573;BME280;59408;51.032;9.410;2023-02-22T03:45:39;98929.25;;;2.54;100.00
71573;BME280;59408;51.032;9.410;2023-02-22T03:48:13;98928.13;;;2.55;100.00
71573;BME280;59408;51.032;9.410;2023-02-22T03:50:43;98926.78;;;2.58;100.00
71573;BME280;59408;51.032;9.410;2023-02-22T03:53:10;98926.78;;;2.58;100.00
71573;BME280;59408;51.032;9.410;2023-02-22T03:55:37;98923.28;;;2.57;100.00
71573;BME280;59408;51.032;9.410;2023-02-22T03:58:05;98929.75;;;2.56;100.00
71573;BME280;59408;51.032;9.410;2023-02-22T04:00:35;98934.31;;;2.56;100.00
71573;BME280;59408;51.032;9.410;2023-02-22T04:03:01;98917.56;;;2.64;100.00
71573;BME280;59408;51.032;9.410;2023-02-22T04:05:29;98927.22;;;2.65;100.00
71573;BME280;59408;51.032;9.410;2023-02-22T04:07:57;98934.47;;;2.64;100.00
71573;BME280;59408;51.032;9.410;2023-02-22T04:10:24;98925.31;;;2.65;100.00
71573;BME280;59408;51.032;9.410;2023-02-22T04:12:50;98923.16;;;2.67;100.00
71573;BME280;59408;51.032;9.410;2023-02-22T04:15:19;98926.94;;;2.66;100.00
71573;BME280;59408;51.032;9.410;2023-02-22T04:17:46;98917.25;;;2.65;100.00
71573;BME280;59408;51.032;9.410;2023-02-22T04:20:13;98924.22;;;2.66;100.00
71573;BME280;59408;51.032;9.410;2023-02-22T04:22:40;98920.44;;;2.67;100.00
71573;BME280;59408;51.032;9.410;2023-02-22T04:25:08;98925.56;;;2.69;100.00
71573;BME280;59408;51.032;9.410;2023-02-22T04:27:34;98915.34;;;2.66;100.00
71573;BME280;59408;51.032;9.410;2023-02-22T04:30:01;98915.34;;;2.66;100.00
71573;BME280;59408;51.032;9.410;2023-02-22T04:32:28;98920.75;;;2.66;100.00
71573;BME280;59408;51.032;9.410;2023-02-22T04:34:54;98916.09;;;2.71;100.00
71573;BME280;59408;51.032;9.410;2023-02-22T04:37:21;98918.44;;;2.78;100.00
71573;BME280;59408;51.032;9.410;2023-02-22T04:39:47;98916.25;;;2.80;100.00
71573;BME280;59408;51.032;9.410;2023-02-22T04:42:16;98908.88;;;2.86;100.00
71573;BME280;59408;51.032;9.410;2023-02-22T04:44:42;98911.06;;;2.84;100.00
71573;BME280;59408;51.032;9.410;2023-02-22T04:47:09;98913.28;;;2.82;100.00
71573;BME280;59408;51.032;9.410;2023-02-22T04:49:35;98915.97;;;2.82;100.00
71573;BME280;59408;51.032;9.410;2023-02-22T04:52:04;98911.53;;;2.72;100.00
71573;BME280;59408;51.032;9.410;2023-02-22T04:54:30;98916.59;;;2.73;100.00
71573;BME280;59408;51.032;9.410;2023-02-22T04:56:57;98915.00;;;2.72;100.00
71573;BME280;59408;51.032;9.410;2023-02-22T04:59:25;98912.38;;;2.67;100.00
71573;BME280;59408;51.032;9.410;2023-02-22T05:01:52;98916.75;;;2.63;100.00
71573;BME280;59408;51.032;9.410;2023-02-22T05:04:19;98913.03;;;2.59;100.00
71573;BME280;59408;51.032;9.410;2023-02-22T05:06:45;98906.28;;;2.62;100.00
71573;BME280;59408;51.032;9.410;2023-02-22T05:09:12;98901.84;;;2.71;100.00
71573;BME280;59408;51.032;9.410;2023-02-22T05:11:38;98911.97;;;2.79;100.00
71573;BME280;59408;51.032;9.410;2023-02-22T05:14:05;98914.41;;;2.75;100.00
71573;BME280;59408;51.032;9.410;2023-02-22T05:16:33;98917.84;;;2.62;100.00
71573;BME280;59408;51.032;9.410;2023-02-22T05:19:00;98915.47;;;2.56;100.00
71573;BME280;59408;51.032;9.410;2023-02-22T05:21:26;98923.13;;;2.49;100.00
71573;BME280;59408;51.032;9.410;2023-02-22T05:23:53;98914.06;;;2.39;100.00
71573;BME280;59408;51.032;9.410;2023-02-22T05:26:19;98908.53;;;2.31;100.00
71573;BME280;59408;51.032;9.410;2023-02-22T05:28:46;98913.41;;;2.29;100.00
71573;BME280;59408;51.032;9.410;2023-02-22T05:31:13;98914.28;;;2.24;100.00
71573;BME280;59408;51.032;9.410;2023-02-22T05:33:41;98913.22;;;2.20;100.00
71573;BME280;59408;51.032;9.410;2023-02-22T05:36:07;98909.75;;;2.20;100.00
71573;BME280;59408;51.032;9.410;2023-02-22T05:38:36;98905.75;;;2.17;100.00
71573;BME280;59408;51.032;9.410;2023-02-22T05:41:02;98910.09;;;2.13;100.00
71573;BME280;59408;51.032;9.410;2023-02-22T05:43:29;98908.56;;;2.07;100.00
71573;BME280;59408;51.032;9.410;2023-02-22T05:45:56;98901.31;;;2.03;100.00
71573;BME280;59408;51.032;9.410;2023-02-22T05:48:22;98902.66;;;2.05;100.00
71573;BME280;59408;51.032;9.410;2023-02-22T05:50:50;98901.31;;;2.03;100.00
71573;BME280;59408;51.032;9.410;2023-02-22T05:53:17;98902.13;;;2.03;100.00
71573;BME280;59408;51.032;9.410;2023-02-22T05:55:43;98895.50;;;1.95;100.00
71573;BME280;59408;51.032;9.410;2023-02-22T05:58:12;98902.03;;;1.89;100.00
71573;BME280;59408;51.032;9.410;2023-02-22T06:00:38;98902.03;;;1.89;100.00
71573;BME280;59408;51.032;9.410;2023-02-22T06:03:06;98896.38;;;1.91;100.00
71573;BME280;59408;51.032;9.410;2023-02-22T06:05:33;98898.25;;;1.90;100.00
71573;BME280;59408;51.032;9.410;2023-02-22T06:08:03;98905.72;;;1.93;100.00
71573;BME280;59408;51.032;9.410;2023-02-22T06:10:30;98897.66;;;1.93;100.00
71573;BME280;59408;51.032;9.410;2023-02-22T06:12:58;98896.06;;;1.92;100.00
71573;BME280;59408;51.032;9.410;2023-02-22T06:15:26;98896.56;;;1.94;100.00
71573;BME280;59408;51.032;9.410;2023-02-22T06:17:54;98897.63;;;1.98;100.00
71573;BME280;59408;51.032;9.410;2023-02-22T06:20:21;98896.81;;;1.98;100.00
71573;BME280;59408;51.032;9.410;2023-02-22T06:22:49;98896.00;;;1.97;100.00
71573;BME280;59408;51.032;9.410;2023-02-22T06:25:20;98894.94;;;1.98;100.00
71573;BME280;59408;51.032;9.410;2023-02-22T06:27:47;98899.22;;;1.99;100.00
71573;BME280;59408;51.032;9.410;2023-02-22T06:30:14;98900.03;;;2.00;100.00
71573;BME280;59408;51.032;9.410;2023-02-22T06:32:42;98901.91;;;1.99;100.00
71573;BME280;59408;51.032;9.410;2023-02-22T06:35:09;98910.00;;;1.99;100.00
71573;BME280;59408;51.032;9.410;2023-02-22T06:37:35;98905.41;;;2.00;100.00
71573;BME280;59408;51.032;9.410;2023-02-22T06:40:02;98908.59;;;2.02;100.00
71573;BME280;59408;51.032;9.410;2023-02-22T06:42:32;98907.75;;;2.07;100.00
71573;BME280;59408;51.032;9.410;2023-02-22T06:44:59;98907.75;;;2.07;100.00
71573;BME280;59408;51.032;9.410;2023-02-22T06:47:26;98910.97;;;2.09;100.00
71573;BME280;59408;51.032;9.410;2023-02-22T06:49:53;98904.47;;;2.10;100.00
71573;BME280;59408;51.032;9.410;2023-02-22T06:52:19;98910.97;;;2.09;100.00
71573;BME280;59408;51.032;9.410;2023-02-22T06:54:46;98916.84;;;2.11;100.00
71573;BME280;59408;51.032;9.410;2023-02-22T06:57:13;98910.66;;;2.10;100.00
71573;BME280;59408;51.032;9.410;2023-02-22T06:59:40;98917.88;;;2.15;100.00
71573;BME280;59408;51.032;9.410;2023-02-22T07:02:08;98910.09;;;2.13;100.00
71573;BME280;59408;51.032;9.410;2023-02-22T07:04:36;98922.47;;;2.14;100.00
71573;BME280;59408;51.032;9.410;2023-02-22T07:07:02;98918.69;;;2.15;100.00
71573;BME280;59408;51.032;9.410;2023-02-22T07:09:29;98920.56;;;2.15;100.00
71573;BME280;59408;51.032;9.410;2023-02-22T07:11:56;98922.38;;;2.19;100.00
71573;BME280;59408;51.032;9.410;2023-02-22T07:14:22;98924.50;;;2.22;100.00
71573;BME280;59408;51.032;9.410;2023-02-22T07:16:50;98920.66;;;2.28;100.00
71573;BME280;59408;51.032;9.410;2023-02-22T07:19:17;98918.78;;;2.29;100.00
71573;BME280;59408;51.032;9.410;2023-02-22T07:21:43;98924.41;;;2.32;100.00
71573;BME280;59408;51.032;9.410;2023-02-22T07:24:10;98922.44;;;2.38;100.00
71573;BME280;59408;51.032;9.410;2023-02-22T07:26:38;98927.00;;;2.37;100.00
71573;BME280;59408;51.032;9.410;2023-02-22T07:29:05;98927.97;;;2.47;100.00
71573;BME280;59408;51.032;9.410;2023-02-22T07:31:34;98926.25;;;2.56;100.00
71573;BME280;59408;51.032;9.410;2023-02-22T07:34:02;98926.50;;;2.59;100.00
71573;BME280;59408;51.032;9.410;2023-02-22T07:36:28;98930.72;;;2.65;100.00
71573;BME280;59408;51.032;9.410;2023-02-22T07:38:55;98922.84;;;2.69;100.00
71573;BME280;59408;51.032;9.410;2023-02-22T07:41:21;98928.97;;;2.74;100.00
71573;BME280;59408;51.032;9.410;2023-02-22T07:43:48;98923.00;;;2.78;100.00
71573;BME280;59408;51.032;9.410;2023-02-22T07:46:15;98922.16;;;2.82;100.00
71573;BME280;59408;51.032;9.410;2023-02-22T07:48:41;98920.56;;;2.81;100.00
71573;BME280;59408;51.032;9.410;2023-02-22T07:51:09;98922.94;;;2.83;100.00
71573;BME280;59408;51.032;9.410;2023-02-22T07:53:36;98915.03;;;2.91;100.00
71573;BME280;59408;51.032;9.410;2023-02-22T07:56:04;98922.44;;;2.99;100.00
71573;BME280;59408;51.032;9.410;2023-02-22T07:58:31;98917.88;;;3.00;100.00
71573;BME280;59408;51.032;9.410;2023-02-22T08:00:58;98920.47;;;3.05;100.00
71573;BME280;59408;51.032;9.410;2023-02-22T08:03:25;98913.84;;;3.16;100.00
71573;BME280;59408;51.032;9.410;2023-02-22T08:05:53;98906.41;;;3.27;100.00
71573;BME280;59408;51.032;9.410;2023-02-22T08:08:22;98901.63;;;3.37;100.00
71573;BME280;59408;51.032;9.410;2023-02-22T08:10:49;98898.75;;;3.47;100.00
71573;BME280;59408;51.032;9.410;2023-02-22T08:13:16;98896.63;;;3.63;100.00
71573;BME280;59408;51.032;9.410;2023-02-22T08:15:43;98900.13;;;3.77;100.00
71573;BME280;59408;51.032;9.410;2023-02-22T08:18:12;98891.28;;;3.91;100.00
71573;BME280;59408;51.032;9.410;2023-02-22T08:20:40;98893.88;;;3.96;100.00
71573;BME280;59408;51.032;9.410;2023-02-22T08:23:08;98895.06;;;4.03;100.00
71573;BME280;59408;51.032;9.410;2023-02-22T08:25:36;98892.28;;;4.08;100.00
71573;BME280;59408;51.032;9.410;2023-02-22T08:28:05;98895.25;;;4.20;100.00
71573;BME280;59408;51.032;9.410;2023-02-22T08:30:32;98889.38;;;4.32;100.00
71573;BME280;59408;51.032;9.410;2023-02-22T08:33:00;98883.75;;;4.28;100.00
71573;BME280;59408;51.032;9.410;2023-02-22T08:35:27;98889.66;;;4.31;100.00
71573;BME280;59408;51.032;9.410;2023-02-22T08:37:56;98883.38;;;4.35;100.00
71573;BME280;59408;51.032;9.410;2023-02-22T08:40:25;98881.66;;;4.39;100.00
71573;BME280;59408;51.032;9.410;2023-02-22T08:42:54;98880.34;;;4.50;100.00
71573;BME280;59408;51.032;9.410;2023-02-22T08:45:21;98881.81;;;4.56;100.00
71573;BME280;59408;51.032;9.410;2023-02-22T08:47:48;98870.44;;;4.59;100.00
71573;BME280;59408;51.032;9.410;2023-02-22T08:50:18;98878.19;;;4.75;100.00
71573;BME280;59408;51.032;9.410;2023-02-22T08:52:45;98870.66;;;4.85;100.00
71573;BME280;59408;51.032;9.410;2023-02-22T08:55:11;98867.06;;;4.90;100.00
71573;BME280;59408;51.032;9.410;2023-02-22T08:57:38;98868.69;;;4.91;100.00
71573;BME280;59408;51.032;9.410;2023-02-22T09:00:07;98873.53;;;5.03;100.00
71573;BME280;59408;51.032;9.410;2023-02-22T09:02:34;98871.09;;;5.15;100.00
71573;BME280;59408;51.032;9.410;2023-02-22T09:05:00;98863.34;;;5.22;100.00
71573;BME280;59408;51.032;9.410;2023-02-22T09:07:27;98860.19;;;5.28;100.00
71573;BME280;59408;51.032;9.410;2023-02-22T09:09:53;98855.13;;;5.27;100.00
71573;BME280;59408;51.032;9.410;2023-02-22T09:12:20;98856.94;;;5.40;100.00
71573;BME280;59408;51.032;9.410;2023-02-22T09:14:47;98857.22;;;5.38;100.00
71573;BME280;59408;51.032;9.410;2023-02-22T09:17:15;98848.88;;;5.49;100.00
71573;BME280;59408;51.032;9.410;2023-02-22T09:19:41;98854.00;;;5.59;100.00
71573;BME280;59408;51.032;9.410;2023-02-22T09:22:08;98853.69;;;5.83;100.00
71573;BME280;59408;51.032;9.410;2023-02-22T09:24:34;98848.28;;;5.91;100.00
71573;BME280;59408;51.032;9.410;2023-02-22T09:27:01;98857.16;;;5.83;100.00
71573;BME280;59408;51.032;9.410;2023-02-22T09:29:28;98847.88;;;5.75;100.00
71573;BME280;59408;51.032;9.410;2023-02-22T09:31:55;98845.94;;;5.67;100.00
71573;BME280;59408;51.032;9.410;2023-02-22T09:34:24;98841.56;;;5.80;100.00
71573;BME280;59408;51.032;9.410;2023-02-22T09:36:50;98845.50;;;5.74;100.00
71573;BME280;59408;51.032;9.410;2023-02-22T09:39:17;98840.97;;;5.92;100.00
71573;BME280;59408;51.032;9.410;2023-02-22T09:41:51;98836.44;;;6.18;100.00
71573;BME280;59408;51.032;9.410;2023-02-22T09:44:24;98836.28;;;6.23;100.00
71573;BME280;59408;51.032;9.410;2023-02-22T09:46:56;98841.03;;;6.09;100.00
71573;BME280;59408;51.032;9.410;2023-02-22T09:49:29;98834.81;;;6.08;100.00
71573;BME280;59408;51.032;9.410;2023-02-22T09:51:59;98829.72;;;6.07;100.00
71573;BME280;59408;51.032;9.410;2023-02-22T09:54:29;98840.63;;;5.93;100.00
71573;BME280;59408;51.032;9.410;2023-02-22T09:56:59;98839.44;;;5.68;100.00
71573;BME280;59408;51.032;9.410;2023-02-22T09:59:30;98827.09;;;5.93;100.00
71573;BME280;59408;51.032;9.410;2023-02-22T10:02:01;98826.84;;;5.64;100.00
71573;BME280;59408;51.032;9.410;2023-02-22T10:04:38;98836.63;;;5.51;100.00
71573;BME280;59408;51.032;9.410;2023-02-22T10:07:14;98831.72;;;5.53;100.00
71573;BME280;59408;51.032;9.410;2023-02-22T10:09:42;98830.34;;;5.64;100.00
71573;BME280;59408;51.032;9.410;2023-02-22T10:12:14;98827.03;;;5.76;100.00
71573;BME280;59408;51.032;9.410;2023-02-22T10:15:11;98824.94;;;5.64;100.00
71573;BME280;59408;51.032;9.410;2023-02-22T10:17:48;98829.25;;;5.74;100.00
71573;BME280;59408;51.032;9.410;2023-02-22T10:20:34;98825.66;;;5.56;100.00
71573;BME280;59408;51.032;9.410;2023-02-22T10:23:12;98827.94;;;5.63;100.00
71573;BME280;59408;51.032;9.410;2023-02-22T10:25:43;98832.03;;;5.83;100.00
71573;BME280;59408;51.032;9.410;2023-02-22T10:28:13;98834.16;;;5.63;100.00
71573;BME280;59408;51.032;9.410;2023-02-22T10:30:48;98826.47;;;5.57;100.00
71573;BME280;59408;51.032;9.410;2023-02-22T10:33:18;98822.31;;;5.51;100.00
71573;BME280;59408;51.032;9.410;2023-02-22T10:35:47;98829.06;;;5.62;100.00
71573;BME280;59408;51.032;9.410;2023-02-22T10:38:16;98830.00;;;5.66;100.00
71573;BME280;59408;51.032;9.410;2023-02-22T10:40:47;98822.56;;;5.71;100.00
71573;BME280;59408;51.032;9.410;2023-02-22T10:43:14;98820.44;;;5.91;100.00
71573;BME280;59408;51.032;9.410;2023-02-22T10:45:41;98825.69;;;5.96;100.00
71573;BME280;59408;51.032;9.410;2023-02-22T10:48:11;98820.22;;;5.79;100.00
71573;BME280;59408;51.032;9.410;2023-02-22T10:50:42;98820.03;;;5.75;100.00
71573;BME280;59408;51.032;9.410;2023-02-22T10:53:11;98821.69;;;5.93;100.00
71573;BME280;59408;51.032;9.410;2023-02-22T10:56:05;98815.88;;;6.17;100.00
71573;BME280;59408;51.032;9.410;2023-02-22T10:58:39;98817.31;;;6.23;100.00
71573;BME280;59408;51.032;9.410;2023-02-22T11:01:17;98817.22;;;6.37;100.00
71573;BME280;59408;51.032;9.410;2023-02-22T11:03:45;98816.13;;;6.55;100.00
71573;BME280;59408;51.032;9.410;2023-02-22T11:06:21;98813.88;;;6.57;100.00
71573;BME280;59408;51.032;9.410;2023-02-22T11:08:48;98808.94;;;6.76;100.00
71573;BME280;59408;51.032;9.410;2023-02-22T11:11:21;98810.84;;;6.76;100.00
71573;BME280;59408;51.032;9.410;2023-02-22T11:13:53;98808.78;;;6.81;100.00
71573;BME280;59408;51.032;9.410;2023-02-22T11:16:26;98798.56;;;6.96;100.00
71573;BME280;59408;51.032;9.410;2023-02-22T11:18:59;98801.56;;;7.03;100.00
71573;BME280;59408;51.032;9.410;2023-02-22T11:21:28;98798.41;;;7.01;100.00
71573;BME280;59408;51.032;9.410;2023-02-22T11:24:06;98786.56;;;7.31;100.00
71573;BME280;59408;51.032;9.410;2023-02-22T11:26:40;98789.09;;;7.45;100.00
71573;BME280;59408;51.032;9.410;2023-02-22T11:29:14;98782.69;;;7.41;100.00
71573;BME280;59408;51.032;9.410;2023-02-22T11:31:44;98777.91;;;7.46;100.00
71573;BME280;59408;51.032;9.410;2023-02-22T11:34:28;98772.50;;;7.76;100.00
71573;BME280;59408;51.032;9.410;2023-02-22T11:36:55;98780.50;;;7.81;100.00
71573;BME280;59408;51.032;9.410;2023-02-22T11:42:27;98773.41;;;7.88;100.00
71573;BME280;59408;51.032;9.410;2023-02-22T11:45:09;98774.97;;;7.98;100.00
71573;BME280;59408;51.032;9.410;2023-02-22T11:47:45;98766.13;;;7.80;100.00
71573;BME280;59408;51.032;9.410;2023-02-22T11:50:22;98765.78;;;7.82;100.00
71573;BME280;59408;51.032;9.410;2023-02-22T11:52:56;98762.03;;;7.95;100.00
71573;BME280;59408;51.032;9.410;2023-02-22T11:55:29;98757.06;;;8.26;99.79
71573;BME280;59408;51.032;9.410;2023-02-22T11:58:25;98752.75;;;8.46;98.56
71573;BME280;59408;51.032;9.410;2023-02-22T12:00:59;98748.53;;;8.36;97.67
71573;BME280;59408;51.032;9.410;2023-02-22T12:03:39;98747.25;;;8.55;98.98
71573;BME280;59408;51.032;9.410;2023-02-22T12:06:17;98742.25;;;8.77;96.61
71573;BME280;59408;51.032;9.410;2023-02-22T12:08:59;98742.63;;;8.88;95.46
71573;BME280;59408;51.032;9.410;2023-02-22T12:11:34;98746.91;;;9.10;94.09
71573;BME280;59408;51.032;9.410;2023-02-22T12:14:13;98740.13;;;9.16;93.94
71573;BME280;59408;51.032;9.410;2023-02-22T12:16:55;98734.53;;;9.00;94.60
71573;BME280;59408;51.032;9.410;2023-02-22T12:19:29;98734.47;;;9.21;93.66
71573;BME280;59408;51.032;9.410;2023-02-22T12:22:01;98729.19;;;8.92;94.97
71573;BME280;59408;51.032;9.410;2023-02-22T12:24:33;98734.53;;;9.12;93.76
71573;BME280;59408;51.032;9.410;2023-02-22T12:27:06;98731.34;;;8.98;95.21
71573;BME280;59408;51.032;9.410;2023-02-22T12:29:38;98716.41;;;9.17;94.68
71573;BME280;59408;51.032;9.410;2023-02-22T12:32:11;98721.59;;;9.42;93.28
71573;BME280;59408;51.032;9.410;2023-02-22T12:34:44;98721.47;;;9.75;91.44
71573;BME280;59408;51.032;9.410;2023-02-22T12:37:16;98719.91;;;9.86;91.14
71573;BME280;59408;51.032;9.410;2023-02-22T12:39:51;98715.34;;;10.03;90.86
71573;BME280;59408;51.032;9.410;2023-02-22T12:42:25;98714.78;;;9.97;89.81
71573;BME280;59408;51.032;9.410;2023-02-22T12:44:58;98712.97;;;9.89;90.82
71573;BME280;59408;51.032;9.410;2023-02-22T12:47:31;98705.94;;;9.76;91.89
71573;BME280;59408;51.032;9.410;2023-02-22T12:50:05;98711.25;;;9.84;92.44
71573;BME280;59408;51.032;9.410;2023-02-22T12:52:42;98711.81;;;10.02;91.87
71573;BME280;59408;51.032;9.410;2023-02-22T12:55:15;98719.31;;;10.17;91.89
71573;BME280;59408;51.032;9.410;2023-02-22T12:57:48;98707.59;;;10.17;91.62
71573;BME280;59408;51.032;9.410;2023-02-22T13:00:20;98704.34;;;10.39;90.04
71573;BME280;59408;51.032;9.410;2023-02-22T13:02:55;98703.84;;;10.61;87.83
71573;BME280;59408;51.032;9.410;2023-02-22T13:05:22;98709.03;;;10.67;87.33
71573;BME280;59408;51.032;9.410;2023-02-22T13:08:00;98709.41;;;10.65;87.25
71573;BME280;59408;51.032;9.410;2023-02-22T13:10:36;98703.22;;;10.40;88.33
71573;BME280;59408;51.032;9.410;2023-02-22T13:13:11;98703.22;;;10.40;86.70
71573;BME280;59408;51.032;9.410;2023-02-22T13:15:49;98698.91;;;10.39;88.70
71573;BME280;59408;51.032;9.410;2023-02-22T13:18:23;98704.53;;;10.58;87.65
71573;BME280;59408;51.032;9.410;2023-02-22T13:20:57;98695.81;;;10.81;88.10
71573;BME280;59408;51.032;9.410;2023-02-22T13:23:34;98685.09;;;10.88;88.42